Terminal Aerodrome Forecast
Issued by NWS Sioux Falls, SD

Home | Current Version | Previous Version | Graphics & Text | Print | Product List | Glossary Off
Versions: 1 2 3 4 5 6 7 8 9 10 11 12 13 14 15 16 17 18 19 20 21 22

000
FTUS43 KFSD 271120
TAFSUX
TAF
KSUX 271120Z 2712/2812 07024G32KT 6SM SHRA OVC008
     FM271500 10020G28KT P6SM OVC008
     FM271900 08019G26KT P6SM OVC010
     FM272100 07017G25KT P6SM TSRA OVC010CB
     FM272200 08017G24KT P6SM SHRA OVC015
     FM280000 08015G22KT P6SM OVC015
     FM280800 04010KT P6SM OVC010=

USA.gov is the U.S. government's official web portal to all federal, state and local government web resources and services.